sensor_id;sensor_type;location;lat;lon;timestamp;P1;durP1;ratioP1;P2;durP2;ratioP2
2041;SDS011;1026;51.460;7.252;2022-12-18T00:01:56;11.03;;;8.20;;
2041;SDS011;1026;51.460;7.252;2022-12-18T00:04:24;14.47;;;10.30;;
2041;SDS011;1026;51.460;7.252;2022-12-18T00:06:51;12.80;;;8.50;;
2041;SDS011;1026;51.460;7.252;2022-12-18T00:09:17;10.90;;;8.47;;
2041;SDS011;1026;51.460;7.252;2022-12-18T00:11:44;15.70;;;8.23;;
2041;SDS011;1026;51.460;7.252;2022-12-18T00:14:11;12.17;;;8.10;;
2041;SDS011;1026;51.460;7.252;2022-12-18T00:16:37;11.27;;;7.00;;
2041;SDS011;1026;51.460;7.252;2022-12-18T00:19:04;10.00;;;7.83;;
2041;SDS011;1026;51.460;7.252;2022-12-18T00:21:31;15.23;;;10.10;;
2041;SDS011;1026;51.460;7.252;2022-12-18T00:23:58;12.63;;;7.33;;
2041;SDS011;1026;51.460;7.252;2022-12-18T00:26:25;14.33;;;8.07;;
2041;SDS011;1026;51.460;7.252;2022-12-18T00:28:53;14.77;;;9.40;;
2041;SDS011;1026;51.460;7.252;2022-12-18T00:31:21;11.50;;;6.63;;
2041;SDS011;1026;51.460;7.252;2022-12-18T00:33:48;14.63;;;8.10;;
2041;SDS011;1026;51.460;7.252;2022-12-18T00:36:21;14.37;;;9.20;;
2041;SDS011;1026;51.460;7.252;2022-12-18T00:38:49;14.67;;;7.50;;
2041;SDS011;1026;51.460;7.252;2022-12-18T00:41:15;10.47;;;7.17;;
2041;SDS011;1026;51.460;7.252;2022-12-18T00:44:02;13.20;;;9.00;;
2041;SDS011;1026;51.460;7.252;2022-12-18T00:46:28;11.67;;;7.63;;
2041;SDS011;1026;51.460;7.252;2022-12-18T00:48:53;11.03;;;7.30;;
2041;SDS011;1026;51.460;7.252;2022-12-18T00:51:19;11.20;;;7.13;;
2041;SDS011;1026;51.460;7.252;2022-12-18T00:53:44;9.47;;;7.07;;
2041;SDS011;1026;51.460;7.252;2022-12-18T00:56:11;10.27;;;6.70;;
2041;SDS011;1026;51.460;7.252;2022-12-18T00:58:37;11.47;;;7.57;;
2041;SDS011;1026;51.460;7.252;2022-12-18T01:01:04;13.20;;;7.37;;
2041;SDS011;1026;51.460;7.252;2022-12-18T01:03:30;12.23;;;7.90;;
2041;SDS011;1026;51.460;7.252;2022-12-18T01:05:56;10.23;;;7.90;;
2041;SDS011;1026;51.460;7.252;2022-12-18T01:08:22;11.30;;;6.80;;
2041;SDS011;1026;51.460;7.252;2022-12-18T01:10:48;9.40;;;7.30;;
2041;SDS011;1026;51.460;7.252;2022-12-18T01:13:14;8.40;;;6.70;;
2041;SDS011;1026;51.460;7.252;2022-12-18T01:15:39;10.37;;;7.17;;
2041;SDS011;1026;51.460;7.252;2022-12-18T01:18:05;8.60;;;7.53;;
2041;SDS011;1026;51.460;7.252;2022-12-18T01:20:32;10.90;;;7.43;;
2041;SDS011;1026;51.460;7.252;2022-12-18T01:22:58;8.50;;;7.00;;
2041;SDS011;1026;51.460;7.252;2022-12-18T01:25:23;11.30;;;7.60;;
2041;SDS011;1026;51.460;7.252;2022-12-18T01:27:50;10.03;;;7.37;;
2041;SDS011;1026;51.460;7.252;2022-12-18T01:30:15;16.90;;;7.57;;
2041;SDS011;1026;51.460;7.252;2022-12-18T01:32:41;10.20;;;7.60;;
2041;SDS011;1026;51.460;7.252;2022-12-18T01:35:07;10.40;;;7.63;;
2041;SDS011;1026;51.460;7.252;2022-12-18T01:37:39;9.17;;;6.87;;
2041;SDS011;1026;51.460;7.252;2022-12-18T01:40:05;9.90;;;7.50;;
2041;SDS011;1026;51.460;7.252;2022-12-18T01:42:31;13.37;;;9.00;;
2041;SDS011;1026;51.460;7.252;2022-12-18T01:45:37;13.37;;;7.27;;
2041;SDS011;1026;51.460;7.252;2022-12-18T01:50:13;10.30;;;6.30;;
2041;SDS011;1026;51.460;7.252;2022-12-18T01:52:40;9.63;;;7.57;;
2041;SDS011;1026;51.460;7.252;2022-12-18T01:55:09;11.47;;;7.83;;
2041;SDS011;1026;51.460;7.252;2022-12-18T01:57:35;12.27;;;7.80;;
2041;SDS011;1026;51.460;7.252;2022-12-18T02:00:06;12.93;;;8.00;;
2041;SDS011;1026;51.460;7.252;2022-12-18T02:02:34;11.87;;;7.17;;
2041;SDS011;1026;51.460;7.252;2022-12-18T02:05:00;11.80;;;8.03;;
2041;SDS011;1026;51.460;7.252;2022-12-18T02:07:35;12.50;;;7.73;;
2041;SDS011;1026;51.460;7.252;2022-12-18T02:10:06;12.00;;;8.20;;
2041;SDS011;1026;51.460;7.252;2022-12-18T02:12:37;14.73;;;8.00;;
2041;SDS011;1026;51.460;7.252;2022-12-18T02:15:13;9.03;;;7.30;;
2041;SDS011;1026;51.460;7.252;2022-12-18T02:17:50;9.30;;;7.90;;
2041;SDS011;1026;51.460;7.252;2022-12-18T02:20:26;10.87;;;8.00;;
2041;SDS011;1026;51.460;7.252;2022-12-18T02:23:05;10.80;;;7.20;;
2041;SDS011;1026;51.460;7.252;2022-12-18T02:28:45;8.50;;;6.30;;
2041;SDS011;1026;51.460;7.252;2022-12-18T02:31:15;10.57;;;6.20;;
2041;SDS011;1026;51.460;7.252;2022-12-18T02:33:46;10.53;;;7.43;;
2041;SDS011;1026;51.460;7.252;2022-12-18T02:36:13;5.27;;;4.67;;
2041;SDS011;1026;51.460;7.252;2022-12-18T02:38:41;4.43;;;3.87;;
2041;SDS011;1026;51.460;7.252;2022-12-18T02:41:09;7.50;;;5.13;;
2041;SDS011;1026;51.460;7.252;2022-12-18T02:43:36;5.83;;;3.20;;
2041;SDS011;1026;51.460;7.252;2022-12-18T02:46:20;5.90;;;4.10;;
2041;SDS011;1026;51.460;7.252;2022-12-18T02:48:48;3.10;;;2.77;;
2041;SDS011;1026;51.460;7.252;2022-12-18T02:54:03;5.73;;;3.20;;
2041;SDS011;1026;51.460;7.252;2022-12-18T02:56:35;7.77;;;5.90;;
2041;SDS011;1026;51.460;7.252;2022-12-18T02:59:12;4.80;;;3.63;;
2041;SDS011;1026;51.460;7.252;2022-12-18T03:01:48;4.60;;;3.40;;
2041;SDS011;1026;51.460;7.252;2022-12-18T03:04:20;6.00;;;3.73;;
2041;SDS011;1026;51.460;7.252;2022-12-18T03:06:54;4.20;;;3.23;;
2041;SDS011;1026;51.460;7.252;2022-12-18T03:09:26;5.27;;;4.30;;
2041;SDS011;1026;51.460;7.252;2022-12-18T03:11:59;7.17;;;5.70;;
2041;SDS011;1026;51.460;7.252;2022-12-18T03:14:44;5.03;;;4.07;;
2041;SDS011;1026;51.460;7.252;2022-12-18T03:17:15;3.30;;;3.00;;
2041;SDS011;1026;51.460;7.252;2022-12-18T03:19:45;6.77;;;3.93;;
2041;SDS011;1026;51.460;7.252;2022-12-18T03:22:12;4.10;;;3.20;;
2041;SDS011;1026;51.460;7.252;2022-12-18T03:24:41;4.33;;;3.83;;
2041;SDS011;1026;51.460;7.252;2022-12-18T03:27:09;3.60;;;2.77;;
2041;SDS011;1026;51.460;7.252;2022-12-18T03:29:42;4.33;;;3.23;;
2041;SDS011;1026;51.460;7.252;2022-12-18T03:34:59;4.33;;;3.13;;
2041;SDS011;1026;51.460;7.252;2022-12-18T03:37:29;7.17;;;3.57;;
2041;SDS011;1026;51.460;7.252;2022-12-18T03:39:56;5.30;;;4.07;;
2041;SDS011;1026;51.460;7.252;2022-12-18T03:42:25;5.57;;;3.20;;
2041;SDS011;1026;51.460;7.252;2022-12-18T03:55:20;6.27;;;3.10;;
2041;SDS011;1026;51.460;7.252;2022-12-18T03:57:47;6.80;;;3.30;;
2041;SDS011;1026;51.460;7.252;2022-12-18T04:00:14;5.87;;;4.03;;
2041;SDS011;1026;51.460;7.252;2022-12-18T04:02:44;4.37;;;3.67;;
2041;SDS011;1026;51.460;7.252;2022-12-18T04:05:13;4.37;;;3.47;;
2041;SDS011;1026;51.460;7.252;2022-12-18T04:07:40;4.77;;;3.13;;
2041;SDS011;1026;51.460;7.252;2022-12-18T04:10:07;4.30;;;3.27;;
2041;SDS011;1026;51.460;7.252;2022-12-18T04:12:38;4.93;;;3.47;;
2041;SDS011;1026;51.460;7.252;2022-12-18T04:15:05;4.53;;;2.60;;
2041;SDS011;1026;51.460;7.252;2022-12-18T04:17:31;8.33;;;3.67;;
2041;SDS011;1026;51.460;7.252;2022-12-18T04:19:57;3.93;;;3.00;;
2041;SDS011;1026;51.460;7.252;2022-12-18T04:22:23;3.20;;;2.90;;
2041;SDS011;1026;51.460;7.252;2022-12-18T04:24:48;2.50;;;1.83;;
2041;SDS011;1026;51.460;7.252;2022-12-18T04:27:14;4.60;;;3.20;;
2041;SDS011;1026;51.460;7.252;2022-12-18T04:29:40;4.70;;;2.63;;
2041;SDS011;1026;51.460;7.252;2022-12-18T04:32:06;4.13;;;2.40;;
2041;SDS011;1026;51.460;7.252;2022-12-18T04:34:32;3.73;;;3.00;;
2041;SDS011;1026;51.460;7.252;2022-12-18T04:36:58;2.37;;;2.17;;
2041;SDS011;1026;51.460;7.252;2022-12-18T04:39:23;3.27;;;2.97;;
2041;SDS011;1026;51.460;7.252;2022-12-18T04:41:49;2.40;;;2.20;;
2041;SDS011;1026;51.460;7.252;2022-12-18T04:44:15;4.23;;;2.83;;
2041;SDS011;1026;51.460;7.252;2022-12-18T04:46:41;3.07;;;2.40;;
2041;SDS011;1026;51.460;7.252;2022-12-18T04:49:06;4.77;;;2.97;;
2041;SDS011;1026;51.460;7.252;2022-12-18T04:51:32;5.57;;;3.07;;
2041;SDS011;1026;51.460;7.252;2022-12-18T04:53:58;4.07;;;2.93;;
2041;SDS011;1026;51.460;7.252;2022-12-18T04:56:23;4.63;;;4.13;;
2041;SDS011;1026;51.460;7.252;2022-12-18T04:58:49;8.73;;;4.73;;
2041;SDS011;1026;51.460;7.252;2022-12-18T05:01:15;7.83;;;5.33;;
2041;SDS011;1026;51.460;7.252;2022-12-18T05:03:42;7.53;;;4.80;;
2041;SDS011;1026;51.460;7.252;2022-12-18T05:06:08;13.23;;;4.73;;
2041;SDS011;1026;51.460;7.252;2022-12-18T05:08:35;5.77;;;4.37;;
2041;SDS011;1026;51.460;7.252;2022-12-18T05:11:02;6.93;;;5.37;;
2041;SDS011;1026;51.460;7.252;2022-12-18T05:13:30;9.70;;;5.60;;
2041;SDS011;1026;51.460;7.252;2022-12-18T05:15:56;10.33;;;5.70;;
2041;SDS011;1026;51.460;7.252;2022-12-18T05:18:22;6.27;;;4.80;;
2041;SDS011;1026;51.460;7.252;2022-12-18T05:20:49;9.30;;;6.57;;
2041;SDS011;1026;51.460;7.252;2022-12-18T05:23:15;9.83;;;5.30;;
2041;SDS011;1026;51.460;7.252;2022-12-18T05:25:41;9.93;;;6.40;;
2041;SDS011;1026;51.460;7.252;2022-12-18T05:28:07;14.20;;;5.40;;
2041;SDS011;1026;51.460;7.252;2022-12-18T05:30:32;10.77;;;5.40;;
2041;SDS011;1026;51.460;7.252;2022-12-18T05:32:58;12.83;;;5.27;;
2041;SDS011;1026;51.460;7.252;2022-12-18T05:35:24;10.17;;;7.67;;
2041;SDS011;1026;51.460;7.252;2022-12-18T05:37:49;8.23;;;5.50;;
2041;SDS011;1026;51.460;7.252;2022-12-18T05:40:15;8.73;;;6.03;;
2041;SDS011;1026;51.460;7.252;2022-12-18T05:42:41;15.37;;;8.63;;
2041;SDS011;1026;51.460;7.252;2022-12-18T05:45:06;9.07;;;5.53;;
2041;SDS011;1026;51.460;7.252;2022-12-18T05:47:32;8.50;;;5.97;;
2041;SDS011;1026;51.460;7.252;2022-12-18T05:49:59;8.30;;;5.47;;
2041;SDS011;1026;51.460;7.252;2022-12-18T05:52:24;6.67;;;5.67;;
2041;SDS011;1026;51.460;7.252;2022-12-18T05:54:50;7.77;;;5.63;;
2041;SDS011;1026;51.460;7.252;2022-12-18T05:57:16;8.37;;;6.27;;
2041;SDS011;1026;51.460;7.252;2022-12-18T05:59:41;8.30;;;6.43;;
2041;SDS011;1026;51.460;7.252;2022-12-18T06:02:07;14.10;;;8.30;;
2041;SDS011;1026;51.460;7.252;2022-12-18T06:04:32;12.90;;;7.77;;
2041;SDS011;1026;51.460;7.252;2022-12-18T06:06:58;7.63;;;6.70;;
2041;SDS011;1026;51.460;7.252;2022-12-18T06:09:24;9.00;;;6.00;;
2041;SDS011;1026;51.460;7.252;2022-12-18T06:11:51;9.30;;;5.80;;
2041;SDS011;1026;51.460;7.252;2022-12-18T06:14:17;10.37;;;5.00;;
2041;SDS011;1026;51.460;7.252;2022-12-18T06:16:43;5.70;;;5.00;;
2041;SDS011;1026;51.460;7.252;2022-12-18T06:19:12;7.70;;;6.33;;
2041;SDS011;1026;51.460;7.252;2022-12-18T06:21:40;11.20;;;6.90;;
2041;SDS011;1026;51.460;7.252;2022-12-18T06:24:05;8.30;;;5.87;;
2041;SDS011;1026;51.460;7.252;2022-12-18T06:26:31;6.70;;;5.63;;
2041;SDS011;1026;51.460;7.252;2022-12-18T06:28:57;8.20;;;5.67;;
2041;SDS011;1026;51.460;7.252;2022-12-18T06:31:23;6.10;;;5.50;;
2041;SDS011;1026;51.460;7.252;2022-12-18T06:33:48;9.73;;;5.27;;
2041;SDS011;1026;51.460;7.252;2022-12-18T06:36:14;8.10;;;6.00;;
2041;SDS011;1026;51.460;7.252;2022-12-18T06:38:41;8.73;;;6.27;;
2041;SDS011;1026;51.460;7.252;2022-12-18T06:41:12;9.30;;;6.67;;
2041;SDS011;1026;51.460;7.252;2022-12-18T06:43:40;10.07;;;6.30;;
2041;SDS011;1026;51.460;7.252;2022-12-18T06:46:05;12.10;;;7.20;;
2041;SDS011;1026;51.460;7.252;2022-12-18T06:48:32;10.00;;;6.80;;
2041;SDS011;1026;51.460;7.252;2022-12-18T06:50:58;11.80;;;7.50;;
2041;SDS011;1026;51.460;7.252;2022-12-18T06:53:24;11.63;;;6.40;;
2041;SDS011;1026;51.460;7.252;2022-12-18T06:55:50;11.50;;;6.80;;
2041;SDS011;1026;51.460;7.252;2022-12-18T06:58:16;8.00;;;5.60;;
2041;SDS011;1026;51.460;7.252;2022-12-18T07:00:42;14.77;;;5.97;;
2041;SDS011;1026;51.460;7.252;2022-12-18T07:03:07;11.20;;;6.80;;
2041;SDS011;1026;51.460;7.252;2022-12-18T07:05:33;10.90;;;6.20;;
2041;SDS011;1026;51.460;7.252;2022-12-18T07:07:59;9.40;;;5.83;;
2041;SDS011;1026;51.460;7.252;2022-12-18T07:10:24;7.97;;;6.93;;
2041;SDS011;1026;51.460;7.252;2022-12-18T07:12:50;11.07;;;6.73;;
2041;SDS011;1026;51.460;7.252;2022-12-18T07:15:16;7.93;;;5.60;;
2041;SDS011;1026;51.460;7.252;2022-12-18T07:17:41;12.70;;;6.83;;
2041;SDS011;1026;51.460;7.252;2022-12-18T07:20:07;9.27;;;6.30;;
2041;SDS011;1026;51.460;7.252;2022-12-18T07:22:33;9.37;;;7.63;;
2041;SDS011;1026;51.460;7.252;2022-12-18T07:24:59;9.00;;;6.30;;
2041;SDS011;1026;51.460;7.252;2022-12-18T07:27:25;9.07;;;6.50;;
2041;SDS011;1026;51.460;7.252;2022-12-18T07:29:50;11.97;;;8.37;;
2041;SDS011;1026;51.460;7.252;2022-12-18T07:32:16;10.93;;;7.13;;
2041;SDS011;1026;51.460;7.252;2022-12-18T07:34:42;10.50;;;7.57;;
2041;SDS011;1026;51.460;7.252;2022-12-18T07:37:07;10.33;;;7.13;;
2041;SDS011;1026;51.460;7.252;2022-12-18T07:39:33;11.47;;;6.97;;
2041;SDS011;1026;51.460;7.252;2022-12-18T07:41:58;8.77;;;6.20;;
2041;SDS011;1026;51.460;7.252;2022-12-18T07:44:39;14.60;;;9.80;;
2041;SDS011;1026;51.460;7.252;2022-12-18T07:47:11;13.17;;;7.37;;
2041;SDS011;1026;51.460;7.252;2022-12-18T07:49:37;11.97;;;7.17;;
2041;SDS011;1026;51.460;7.252;2022-12-18T07:52:03;8.90;;;7.00;;
2041;SDS011;1026;51.460;7.252;2022-12-18T07:54:28;8.93;;;7.17;;
2041;SDS011;1026;51.460;7.252;2022-12-18T07:56:54;10.17;;;7.57;;
2041;SDS011;1026;51.460;7.252;2022-12-18T07:59:19;11.90;;;6.80;;
2041;SDS011;1026;51.460;7.252;2022-12-18T08:01:45;10.77;;;7.00;;
2041;SDS011;1026;51.460;7.252;2022-12-18T08:04:11;10.47;;;8.50;;
2041;SDS011;1026;51.460;7.252;2022-12-18T08:06:36;12.00;;;7.80;;
2041;SDS011;1026;51.460;7.252;2022-12-18T08:09:02;11.57;;;8.60;;
2041;SDS011;1026;51.460;7.252;2022-12-18T08:11:28;13.60;;;9.73;;
2041;SDS011;1026;51.460;7.252;2022-12-18T08:13:54;11.77;;;8.17;;
2041;SDS011;1026;51.460;7.252;2022-12-18T08:16:21;10.00;;;9.00;;
2041;SDS011;1026;51.460;7.252;2022-12-18T08:18:47;8.80;;;7.13;;
2041;SDS011;1026;51.460;7.252;2022-12-18T08:21:14;16.10;;;8.73;;
2041;SDS011;1026;51.460;7.252;2022-12-18T08:23:42;8.87;;;7.63;;
2041;SDS011;1026;51.460;7.252;2022-12-18T08:26:08;12.07;;;8.07;;
2041;SDS011;1026;51.460;7.252;2022-12-18T08:28:34;11.40;;;9.00;;
2041;SDS011;1026;51.460;7.252;2022-12-18T08:31:00;10.80;;;8.13;;
2041;SDS011;1026;51.460;7.252;2022-12-18T08:33:26;11.20;;;8.50;;
2041;SDS011;1026;51.460;7.252;2022-12-18T08:35:52;10.27;;;7.17;;
2041;SDS011;1026;51.460;7.252;2022-12-18T08:38:18;12.53;;;7.40;;
2041;SDS011;1026;51.460;7.252;2022-12-18T08:40:44;13.37;;;8.73;;
2041;SDS011;1026;51.460;7.252;2022-12-18T08:43:10;10.53;;;7.47;;
2041;SDS011;1026;51.460;7.252;2022-12-18T08:45:51;11.93;;;8.43;;
2041;SDS011;1026;51.460;7.252;2022-12-18T08:48:17;9.57;;;7.93;;
2041;SDS011;1026;51.460;7.252;2022-12-18T08:50:42;9.87;;;7.40;;
2041;SDS011;1026;51.460;7.252;2022-12-18T08:53:08;10.20;;;8.33;;
2041;SDS011;1026;51.460;7.252;2022-12-18T08:55:34;16.33;;;11.47;;
2041;SDS011;1026;51.460;7.252;2022-12-18T08:57:59;10.53;;;9.43;;
2041;SDS011;1026;51.460;7.252;2022-12-18T09:00:25;14.13;;;9.27;;
2041;SDS011;1026;51.460;7.252;2022-12-18T09:02:51;10.13;;;7.73;;
2041;SDS011;1026;51.460;7.252;2022-12-18T09:05:16;22.23;;;11.87;;
2041;SDS011;1026;51.460;7.252;2022-12-18T09:07:42;14.07;;;9.57;;
2041;SDS011;1026;51.460;7.252;2022-12-18T09:10:08;16.70;;;10.27;;
2041;SDS011;1026;51.460;7.252;2022-12-18T09:12:33;14.60;;;8.67;;
2041;SDS011;1026;51.460;7.252;2022-12-18T09:14:59;6.23;;;4.90;;
2041;SDS011;1026;51.460;7.252;2022-12-18T09:17:25;3.53;;;3.17;;
2041;SDS011;1026;51.460;7.252;2022-12-18T09:19:51;4.77;;;2.67;;
2041;SDS011;1026;51.460;7.252;2022-12-18T09:22:16;4.60;;;2.70;;
2041;SDS011;1026;51.460;7.252;2022-12-18T09:24:42;5.20;;;2.90;;
2041;SDS011;1026;51.460;7.252;2022-12-18T09:27:07;3.37;;;2.53;;
2041;SDS011;1026;51.460;7.252;2022-12-18T09:29:33;4.67;;;2.77;;
2041;SDS011;1026;51.460;7.252;2022-12-18T09:31:59;3.53;;;2.63;;
2041;SDS011;1026;51.460;7.252;2022-12-18T09:34:24;3.77;;;2.80;;
2041;SDS011;1026;51.460;7.252;2022-12-18T09:36:50;8.73;;;5.43;;
2041;SDS011;1026;51.460;7.252;2022-12-18T09:39:22;3.70;;;2.23;;
2041;SDS011;1026;51.460;7.252;2022-12-18T09:41:56;6.93;;;3.17;;
2041;SDS011;1026;51.460;7.252;2022-12-18T09:44:24;3.03;;;2.27;;
2041;SDS011;1026;51.460;7.252;2022-12-18T09:49:40;4.50;;;3.57;;
2041;SDS011;1026;51.460;7.252;2022-12-18T09:52:11;4.53;;;2.30;;
2041;SDS011;1026;51.460;7.252;2022-12-18T09:54:43;4.30;;;2.90;;
2041;SDS011;1026;51.460;7.252;2022-12-18T09:57:14;2.93;;;2.23;;
2041;SDS011;1026;51.460;7.252;2022-12-18T09:59:43;4.50;;;3.53;;
2041;SDS011;1026;51.460;7.252;2022-12-18T10:02:17;2.93;;;2.30;;
2041;SDS011;1026;51.460;7.252;2022-12-18T10:04:48;2.03;;;1.67;;
2041;SDS011;1026;51.460;7.252;2022-12-18T10:07:29;2.47;;;1.87;;
2041;SDS011;1026;51.460;7.252;2022-12-18T10:13:02;4.10;;;2.20;;
2041;SDS011;1026;51.460;7.252;2022-12-18T10:15:40;1.40;;;1.30;;
2041;SDS011;1026;51.460;7.252;2022-12-18T10:18:21;3.00;;;1.70;;
2041;SDS011;1026;51.460;7.252;2022-12-18T10:21:00;4.20;;;2.80;;
2041;SDS011;1026;51.460;7.252;2022-12-18T10:26:15;2.80;;;2.07;;
2041;SDS011;1026;51.460;7.252;2022-12-18T10:28:40;2.40;;;1.93;;
2041;SDS011;1026;51.460;7.252;2022-12-18T10:31:07;2.20;;;2.00;;
2041;SDS011;1026;51.460;7.252;2022-12-18T10:33:40;2.43;;;1.67;;
2041;SDS011;1026;51.460;7.252;2022-12-18T10:36:06;2.77;;;1.97;;
2041;SDS011;1026;51.460;7.252;2022-12-18T10:38:32;3.20;;;2.00;;
2041;SDS011;1026;51.460;7.252;2022-12-18T10:45:58;3.17;;;2.60;;
2041;SDS011;1026;51.460;7.252;2022-12-18T10:53:52;2.00;;;1.80;;
2041;SDS011;1026;51.460;7.252;2022-12-18T10:56:24;3.00;;;2.70;;
2041;SDS011;1026;51.460;7.252;2022-12-18T10:58:58;2.00;;;1.90;;
2041;SDS011;1026;51.460;7.252;2022-12-18T11:01:24;2.77;;;2.10;;
2041;SDS011;1026;51.460;7.252;2022-12-18T11:06:17;3.83;;;2.30;;
2041;SDS011;1026;51.460;7.252;2022-12-18T11:11:29;4.23;;;2.40;;
2041;SDS011;1026;51.460;7.252;2022-12-18T11:16:22;2.10;;;1.77;;
2041;SDS011;1026;51.460;7.252;2022-12-18T11:18:48;5.37;;;2.70;;
2041;SDS011;1026;51.460;7.252;2022-12-18T11:21:14;3.07;;;2.10;;
2041;SDS011;1026;51.460;7.252;2022-12-18T11:26:22;1.80;;;1.50;;
2041;SDS011;1026;51.460;7.252;2022-12-18T11:29:09;4.63;;;1.93;;
2041;SDS011;1026;51.460;7.252;2022-12-18T11:31:40;7.33;;;2.23;;
2041;SDS011;1026;51.460;7.252;2022-12-18T11:36:52;3.87;;;2.30;;
2041;SDS011;1026;51.460;7.252;2022-12-18T11:39:23;3.27;;;1.90;;
2041;SDS011;1026;51.460;7.252;2022-12-18T11:42:09;3.30;;;1.80;;
2041;SDS011;1026;51.460;7.252;2022-12-18T11:44:48;2.70;;;2.10;;
2041;SDS011;1026;51.460;7.252;2022-12-18T11:47:40;3.70;;;2.30;;
2041;SDS011;1026;51.460;7.252;2022-12-18T11:50:26;3.33;;;2.73;;
2041;SDS011;1026;51.460;7.252;2022-12-18T11:52:58;2.87;;;2.13;;
2041;SDS011;1026;51.460;7.252;2022-12-18T12:00:53;4.07;;;2.67;;
2041;SDS011;1026;51.460;7.252;2022-12-18T12:03:45;3.80;;;2.40;;
2041;SDS011;1026;51.460;7.252;2022-12-18T12:06:33;4.97;;;2.80;;
2041;SDS011;1026;51.460;7.252;2022-12-18T12:12:37;4.10;;;2.40;;
2041;SDS011;1026;51.460;7.252;2022-12-18T12:15:23;3.87;;;2.70;;
2041;SDS011;1026;51.460;7.252;2022-12-18T12:18:18;3.03;;;1.67;;
2041;SDS011;1026;51.460;7.252;2022-12-18T12:23:33;4.37;;;2.47;;
2041;SDS011;1026;51.460;7.252;2022-12-18T12:26:11;3.67;;;2.37;;
2041;SDS011;1026;51.460;7.252;2022-12-18T12:34:16;3.10;;;2.23;;
2041;SDS011;1026;51.460;7.252;2022-12-18T12:36:51;3.30;;;3.00;;
2041;SDS011;1026;51.460;7.252;2022-12-18T12:39:30;2.70;;;2.37;;
2041;SDS011;1026;51.460;7.252;2022-12-18T12:42:02;4.60;;;3.00;;
2041;SDS011;1026;51.460;7.252;2022-12-18T12:44:48;3.50;;;2.40;;
2041;SDS011;1026;51.460;7.252;2022-12-18T12:47:20;7.40;;;2.73;;
2041;SDS011;1026;51.460;7.252;2022-12-18T12:49:52;6.53;;;3.33;;
2041;SDS011;1026;51.460;7.252;2022-12-18T12:52:25;5.50;;;3.37;;
2041;SDS011;1026;51.460;7.252;2022-12-18T12:54:59;3.97;;;3.00;;
2041;SDS011;1026;51.460;7.252;2022-12-18T12:57:37;5.73;;;2.73;;
2041;SDS011;1026;51.460;7.252;2022-12-18T13:00:15;3.53;;;2.90;;
2041;SDS011;1026;51.460;7.252;2022-12-18T13:05:34;4.77;;;3.53;;
2041;SDS011;1026;51.460;7.252;2022-12-18T13:10:57;3.90;;;2.90;;
2041;SDS011;1026;51.460;7.252;2022-12-18T13:13:55;4.37;;;3.27;;
2041;SDS011;1026;51.460;7.252;2022-12-18T13:16:24;4.83;;;3.20;;
2041;SDS011;1026;51.460;7.252;2022-12-18T13:18:54;4.63;;;3.43;;
2041;SDS011;1026;51.460;7.252;2022-12-18T13:21:26;4.57;;;2.83;;
2041;SDS011;1026;51.460;7.252;2022-12-18T13:23:54;4.70;;;4.00;;
2041;SDS011;1026;51.460;7.252;2022-12-18T13:34:17;6.10;;;3.93;;
2041;SDS011;1026;51.460;7.252;2022-12-18T13:36:45;5.60;;;4.30;;
2041;SDS011;1026;51.460;7.252;2022-12-18T13:39:20;7.97;;;3.70;;
2041;SDS011;1026;51.460;7.252;2022-12-18T13:41:51;7.30;;;3.90;;
2041;SDS011;1026;51.460;7.252;2022-12-18T13:47:05;8.13;;;4.87;;
2041;SDS011;1026;51.460;7.252;2022-12-18T13:49:49;6.23;;;4.47;;
2041;SDS011;1026;51.460;7.252;2022-12-18T13:52:18;8.90;;;5.17;;
2041;SDS011;1026;51.460;7.252;2022-12-18T13:54:51;6.87;;;5.40;;
2041;SDS011;1026;51.460;7.252;2022-12-18T13:57:38;7.97;;;4.40;;
2041;SDS011;1026;51.460;7.252;2022-12-18T14:02:47;3.83;;;3.20;;
2041;SDS011;1026;51.460;7.252;2022-12-18T14:08:01;6.80;;;4.60;;
2041;SDS011;1026;51.460;7.252;2022-12-18T14:10:30;10.77;;;7.18;;
2041;SDS011;1026;51.460;7.252;2022-12-18T14:13:05;10.37;;;5.70;;
2041;SDS011;1026;51.460;7.252;2022-12-18T14:15:34;5.23;;;4.53;;
2041;SDS011;1026;51.460;7.252;2022-12-18T14:18:13;9.57;;;5.80;;
2041;SDS011;1026;51.460;7.252;2022-12-18T14:20:50;6.90;;;3.97;;
2041;SDS011;1026;51.460;7.252;2022-12-18T14:26:19;6.77;;;5.27;;
2041;SDS011;1026;51.460;7.252;2022-12-18T14:28:45;3.60;;;3.00;;
2041;SDS011;1026;51.460;7.252;2022-12-18T14:31:19;10.03;;;5.47;;
2041;SDS011;1026;51.460;7.252;2022-12-18T14:33:45;7.47;;;4.53;;
2041;SDS011;1026;51.460;7.252;2022-12-18T14:36:15;6.83;;;4.80;;
2041;SDS011;1026;51.460;7.252;2022-12-18T14:38:43;12.60;;;6.77;;
2041;SDS011;1026;51.460;7.252;2022-12-18T14:41:15;11.30;;;6.60;;
2041;SDS011;1026;51.460;7.252;2022-12-18T14:43:43;6.00;;;4.17;;
2041;SDS011;1026;51.460;7.252;2022-12-18T14:48:52;12.20;;;6.90;;
2041;SDS011;1026;51.460;7.252;2022-12-18T14:51:19;9.73;;;6.57;;
2041;SDS011;1026;51.460;7.252;2022-12-18T14:53:47;9.80;;;5.90;;
2041;SDS011;1026;51.460;7.252;2022-12-18T14:56:19;9.67;;;6.40;;
2041;SDS011;1026;51.460;7.252;2022-12-18T14:58:54;20.58;;;7.13;;
2041;SDS011;1026;51.460;7.252;2022-12-18T15:01:27;12.13;;;5.43;;
2041;SDS011;1026;51.460;7.252;2022-12-18T15:03:55;8.83;;;6.20;;
2041;SDS011;1026;51.460;7.252;2022-12-18T15:06:31;10.37;;;6.03;;
2041;SDS011;1026;51.460;7.252;2022-12-18T15:08:58;12.00;;;7.70;;
2041;SDS011;1026;51.460;7.252;2022-12-18T15:13:52;12.90;;;6.83;;
2041;SDS011;1026;51.460;7.252;2022-12-18T15:16:18;12.07;;;7.20;;
2041;SDS011;1026;51.460;7.252;2022-12-18T15:18:44;8.63;;;5.40;;
2041;SDS011;1026;51.460;7.252;2022-12-18T15:21:11;11.13;;;5.80;;
2041;SDS011;1026;51.460;7.252;2022-12-18T15:26:09;5.90;;;3.40;;
2041;SDS011;1026;51.460;7.252;2022-12-18T15:33:38;13.10;;;8.40;;
2041;SDS011;1026;51.460;7.252;2022-12-18T15:36:10;7.70;;;5.20;;
2041;SDS011;1026;51.460;7.252;2022-12-18T15:38:37;12.63;;;7.67;;
2041;SDS011;1026;51.460;7.252;2022-12-18T15:41:03;11.27;;;7.73;;
2041;SDS011;1026;51.460;7.252;2022-12-18T15:43:29;7.93;;;4.90;;
2041;SDS011;1026;51.460;7.252;2022-12-18T15:46:01;12.17;;;7.70;;
2041;SDS011;1026;51.460;7.252;2022-12-18T15:48:32;10.07;;;5.87;;
2041;SDS011;1026;51.460;7.252;2022-12-18T15:50:59;7.47;;;5.27;;
2041;SDS011;1026;51.460;7.252;2022-12-18T15:53:27;15.70;;;7.80;;
2041;SDS011;1026;51.460;7.252;2022-12-18T15:55:57;9.63;;;6.33;;
2041;SDS011;1026;51.460;7.252;2022-12-18T15:58:38;12.40;;;7.00;;
2041;SDS011;1026;51.460;7.252;2022-12-18T16:01:04;10.03;;;6.70;;
2041;SDS011;1026;51.460;7.252;2022-12-18T16:03:30;11.50;;;8.10;;
2041;SDS011;1026;51.460;7.252;2022-12-18T16:05:56;12.10;;;7.77;;
2041;SDS011;1026;51.460;7.252;2022-12-18T16:08:23;8.43;;;5.80;;
2041;SDS011;1026;51.460;7.252;2022-12-18T16:10:49;11.40;;;8.23;;
2041;SDS011;1026;51.460;7.252;2022-12-18T16:13:15;10.67;;;7.87;;
2041;SDS011;1026;51.460;7.252;2022-12-18T16:15:43;10.00;;;6.97;;
2041;SDS011;1026;51.460;7.252;2022-12-18T16:18:09;15.83;;;8.87;;
2041;SDS011;1026;51.460;7.252;2022-12-18T16:20:35;11.53;;;8.27;;
2041;SDS011;1026;51.460;7.252;2022-12-18T16:23:00;8.97;;;7.07;;
2041;SDS011;1026;51.460;7.252;2022-12-18T16:25:27;11.27;;;8.40;;
2041;SDS011;1026;51.460;7.252;2022-12-18T16:27:54;8.93;;;5.83;;
2041;SDS011;1026;51.460;7.252;2022-12-18T16:30:21;18.30;;;8.63;;
2041;SDS011;1026;51.460;7.252;2022-12-18T16:32:48;14.50;;;8.40;;
2041;SDS011;1026;51.460;7.252;2022-12-18T16:35:15;14.90;;;8.77;;
2041;SDS011;1026;51.460;7.252;2022-12-18T16:37:41;10.50;;;6.23;;
2041;SDS011;1026;51.460;7.252;2022-12-18T16:40:08;15.13;;;7.23;;
2041;SDS011;1026;51.460;7.252;2022-12-18T16:42:37;15.00;;;9.80;;
2041;SDS011;1026;51.460;7.252;2022-12-18T16:45:04;12.10;;;8.37;;
2041;SDS011;1026;51.460;7.252;2022-12-18T16:47:31;8.80;;;7.07;;
2041;SDS011;1026;51.460;7.252;2022-12-18T16:49:57;11.70;;;7.50;;
2041;SDS011;1026;51.460;7.252;2022-12-18T16:52:23;16.70;;;10.43;;
2041;SDS011;1026;51.460;7.252;2022-12-18T16:54:49;14.93;;;9.20;;
2041;SDS011;1026;51.460;7.252;2022-12-18T16:57:15;14.10;;;9.10;;
2041;SDS011;1026;51.460;7.252;2022-12-18T16:59:43;11.00;;;8.27;;
2041;SDS011;1026;51.460;7.252;2022-12-18T17:02:12;17.30;;;9.47;;
2041;SDS011;1026;51.460;7.252;2022-12-18T17:04:39;11.13;;;8.23;;
2041;SDS011;1026;51.460;7.252;2022-12-18T17:07:06;14.97;;;8.70;;
2041;SDS011;1026;51.460;7.252;2022-12-18T17:09:32;8.10;;;6.20;;